sensor_id;sensor_type;location;lat;lon;timestamp;pressure;altitude;pressure_sealevel;temperature;humidity
29379;BME280;16362;47.202;15.258;2024-03-02T00:00:11;95363.03;;;6.62;100.00
29379;BME280;16362;47.202;15.258;2024-03-02T00:02:40;95358.91;;;6.59;100.00
29379;BME280;16362;47.202;15.258;2024-03-02T00:05:08;95362.72;;;6.56;100.00
29379;BME280;16362;47.202;15.258;2024-03-02T00:07:38;95361.88;;;6.56;100.00
29379;BME280;16362;47.202;15.258;2024-03-02T00:10:09;95363.91;;;6.54;100.00
29379;BME280;16362;47.202;15.258;2024-03-02T00:12:38;95360.25;;;6.47;100.00
29379;BME280;16362;47.202;15.258;2024-03-02T00:15:40;95356.44;;;6.49;100.00
29379;BME280;16362;47.202;15.258;2024-03-02T00:18:12;95366.72;;;6.52;100.00
29379;BME280;16362;47.202;15.258;2024-03-02T00:20:40;95361.75;;;6.49;100.00
29379;BME280;16362;47.202;15.258;2024-03-02T00:23:09;95363.56;;;6.49;100.00
29379;BME280;16362;47.202;15.258;2024-03-02T00:25:38;95361.09;;;6.47;100.00
29379;BME280;16362;47.202;15.258;2024-03-02T00:28:13;95358.81;;;6.44;100.00
29379;BME280;16362;47.202;15.258;2024-03-02T00:30:51;95365.09;;;6.43;100.00
29379;BME280;16362;47.202;15.258;2024-03-02T00:33:21;95380.00;;;6.44;100.00
29379;BME280;16362;47.202;15.258;2024-03-02T00:36:06;95367.75;;;6.43;100.00
29379;BME280;16362;47.202;15.258;2024-03-02T00:38:44;95376.81;;;6.49;100.00
29379;BME280;16362;47.202;15.258;2024-03-02T00:41:21;95374.19;;;6.49;100.00
29379;BME280;16362;47.202;15.258;2024-03-02T00:46:19;95373.03;;;6.43;100.00
29379;BME280;16362;47.202;15.258;2024-03-02T00:48:58;95370.75;;;6.40;100.00
29379;BME280;16362;47.202;15.258;2024-03-02T00:51:33;95375.03;;;6.41;100.00
29379;BME280;16362;47.202;15.258;2024-03-02T00:54:04;95375.69;;;6.43;100.00
29379;BME280;16362;47.202;15.258;2024-03-02T00:56:32;95367.56;;;6.45;100.00
29379;BME280;16362;47.202;15.258;2024-03-02T00:59:05;95372.50;;;6.48;100.00
29379;BME280;16362;47.202;15.258;2024-03-02T01:01:33;95373.50;;;6.47;100.00
29379;BME280;16362;47.202;15.258;2024-03-02T01:04:01;95370.22;;;6.45;100.00
29379;BME280;16362;47.202;15.258;2024-03-02T01:06:36;95374.69;;;6.44;100.00
29379;BME280;16362;47.202;15.258;2024-03-02T01:09:03;95375.53;;;6.45;100.00
29379;BME280;16362;47.202;15.258;2024-03-02T01:11:32;95368.88;;;6.49;100.00
29379;BME280;16362;47.202;15.258;2024-03-02T01:14:01;95361.75;;;6.49;100.00
29379;BME280;16362;47.202;15.258;2024-03-02T01:16:29;95360.09;;;6.48;100.00
29379;BME280;16362;47.202;15.258;2024-03-02T01:18:57;95362.75;;;6.48;100.00
29379;BME280;16362;47.202;15.258;2024-03-02T01:21:25;95364.56;;;6.48;100.00
29379;BME280;16362;47.202;15.258;2024-03-02T01:23:59;95361.28;;;6.46;100.00
29379;BME280;16362;47.202;15.258;2024-03-02T01:26:39;95364.75;;;6.46;100.00
29379;BME280;16362;47.202;15.258;2024-03-02T01:29:09;95376.34;;;6.45;100.00
29379;BME280;16362;47.202;15.258;2024-03-02T01:31:45;95367.38;;;6.46;100.00
29379;BME280;16362;47.202;15.258;2024-03-02T01:34:29;95373.34;;;6.48;100.00
29379;BME280;16362;47.202;15.258;2024-03-02T01:36:56;95376.00;;;6.48;100.00
29379;BME280;16362;47.202;15.258;2024-03-02T01:39:22;95371.53;;;6.49;100.00
29379;BME280;16362;47.202;15.258;2024-03-02T01:41:58;95372.19;;;6.51;100.00
29379;BME280;16362;47.202;15.258;2024-03-02T01:44:25;95373.00;;;6.51;100.00
29379;BME280;16362;47.202;15.258;2024-03-02T01:46:52;95368.06;;;6.48;100.00
29379;BME280;16362;47.202;15.258;2024-03-02T01:49:19;95356.78;;;6.46;100.00
29379;BME280;16362;47.202;15.258;2024-03-02T01:51:46;95354.13;;;6.46;100.00
29379;BME280;16362;47.202;15.258;2024-03-02T01:54:12;95356.44;;;6.49;100.00
29379;BME280;16362;47.202;15.258;2024-03-02T01:56:39;95355.63;;;6.49;100.00
29379;BME280;16362;47.202;15.258;2024-03-02T01:59:07;95353.97;;;6.48;100.00
29379;BME280;16362;47.202;15.258;2024-03-02T02:01:33;95352.31;;;6.47;100.00
29379;BME280;16362;47.202;15.258;2024-03-02T02:04:00;95355.97;;;6.46;100.00
29379;BME280;16362;47.202;15.258;2024-03-02T02:06:27;95346.22;;;6.38;100.00
29379;BME280;16362;47.202;15.258;2024-03-02T02:08:54;95354.16;;;6.38;100.00
29379;BME280;16362;47.202;15.258;2024-03-02T02:11:21;95346.22;;;6.38;100.00
29379;BME280;16362;47.202;15.258;2024-03-02T02:13:48;95347.34;;;6.44;100.00
29379;BME280;16362;47.202;15.258;2024-03-02T02:16:15;95346.19;;;6.46;100.00
29379;BME280;16362;47.202;15.258;2024-03-02T02:18:43;95344.53;;;6.45;100.00
29379;BME280;16362;47.202;15.258;2024-03-02T02:21:10;95340.25;;;6.44;100.00
29379;BME280;16362;47.202;15.258;2024-03-02T02:23:37;95349.19;;;6.43;100.00
29379;BME280;16362;47.202;15.258;2024-03-02T02:26:10;95337.09;;;6.40;100.00
29379;BME280;16362;47.202;15.258;2024-03-02T02:28:37;95341.41;;;6.42;100.00
29379;BME280;16362;47.202;15.258;2024-03-02T02:31:05;95334.81;;;6.37;100.00
29379;BME280;16362;47.202;15.258;2024-03-02T02:33:32;95336.97;;;6.34;100.00
29379;BME280;16362;47.202;15.258;2024-03-02T02:36:00;95330.00;;;6.33;100.00
29379;BME280;16362;47.202;15.258;2024-03-02T02:38:33;95321.06;;;6.34;100.00
29379;BME280;16362;47.202;15.258;2024-03-02T02:41:01;95327.66;;;6.38;100.00
29379;BME280;16362;47.202;15.258;2024-03-02T02:43:29;95327.13;;;6.43;100.00
29379;BME280;16362;47.202;15.258;2024-03-02T02:46:15;95328.34;;;6.40;100.00
29379;BME280;16362;47.202;15.258;2024-03-02T02:48:47;95321.19;;;6.40;100.00
29379;BME280;16362;47.202;15.258;2024-03-02T02:51:24;95327.13;;;6.43;100.00
29379;BME280;16362;47.202;15.258;2024-03-02T02:54:05;95331.28;;;6.45;100.00
29379;BME280;16362;47.202;15.258;2024-03-02T02:56:32;95322.81;;;6.50;100.00
29379;BME280;16362;47.202;15.258;2024-03-02T02:58:59;95329.78;;;6.51;100.00
29379;BME280;16362;47.202;15.258;2024-03-02T03:01:27;95320.66;;;6.45;100.00
29379;BME280;16362;47.202;15.258;2024-03-02T03:03:55;95318.38;;;6.42;100.00
29379;BME280;16362;47.202;15.258;2024-03-02T03:06:24;95319.69;;;6.46;100.00
29379;BME280;16362;47.202;15.258;2024-03-02T03:08:52;95323.31;;;6.45;100.00
29379;BME280;16362;47.202;15.258;2024-03-02T03:11:29;95319.69;;;6.46;100.00
29379;BME280;16362;47.202;15.258;2024-03-02T03:13:57;95316.84;;;6.48;100.00
29379;BME280;16362;47.202;15.258;2024-03-02T03:16:25;95322.34;;;6.46;100.00
29379;BME280;16362;47.202;15.258;2024-03-02T03:18:53;95326.31;;;6.42;100.00
29379;BME280;16362;47.202;15.258;2024-03-02T03:21:29;95321.56;;;6.37;100.00
29379;BME280;16362;47.202;15.258;2024-03-02T03:24:03;95329.00;;;6.34;100.00
29379;BME280;16362;47.202;15.258;2024-03-02T03:26:30;95328.34;;;6.40;100.00
29379;BME280;16362;47.202;15.258;2024-03-02T03:28:57;95328.84;;;6.35;100.00
29379;BME280;16362;47.202;15.258;2024-03-02T03:31:24;95327.16;;;6.34;100.00
29379;BME280;16362;47.202;15.258;2024-03-02T03:33:51;95319.72;;;6.38;100.00
29379;BME280;16362;47.202;15.258;2024-03-02T03:36:18;95320.84;;;6.44;100.00
29379;BME280;16362;47.202;15.258;2024-03-02T03:38:45;95317.38;;;6.43;100.00
29379;BME280;16362;47.202;15.258;2024-03-02T03:41:11;95324.81;;;6.48;100.00
29379;BME280;16362;47.202;15.258;2024-03-02T03:43:38;95324.50;;;6.43;100.00
29379;BME280;16362;47.202;15.258;2024-03-02T03:46:05;95323.19;;;6.38;100.00
29379;BME280;16362;47.202;15.258;2024-03-02T03:48:32;95315.75;;;6.34;100.00
29379;BME280;16362;47.202;15.258;2024-03-02T03:50:58;95321.38;;;6.39;100.00
29379;BME280;16362;47.202;15.258;2024-03-02T03:53:25;95314.59;;;6.36;100.00
29379;BME280;16362;47.202;15.258;2024-03-02T03:55:53;95308.81;;;6.33;100.00
29379;BME280;16362;47.202;15.258;2024-03-02T03:58:33;95308.00;;;6.32;100.00
29379;BME280;16362;47.202;15.258;2024-03-02T04:01:03;95315.75;;;6.34;100.00
29379;BME280;16362;47.202;15.258;2024-03-02T04:03:31;95319.88;;;6.36;100.00
29379;BME280;16362;47.202;15.258;2024-03-02T04:05:59;95314.25;;;6.39;100.00
29379;BME280;16362;47.202;15.258;2024-03-02T04:08:27;95317.88;;;6.38;100.00
29379;BME280;16362;47.202;15.258;2024-03-02T04:10:57;95313.09;;;6.34;100.00
29379;BME280;16362;47.202;15.258;2024-03-02T04:13:23;95319.41;;;6.33;100.00
29379;BME280;16362;47.202;15.258;2024-03-02T04:16:00;95319.03;;;6.36;100.00
29379;BME280;16362;47.202;15.258;2024-03-02T04:18:27;95314.25;;;6.39;100.00
29379;BME280;16362;47.202;15.258;2024-03-02T04:20:55;95320.38;;;6.40;100.00
29379;BME280;16362;47.202;15.258;2024-03-02T04:23:23;95313.75;;;6.36;100.00
29379;BME280;16362;47.202;15.258;2024-03-02T04:25:51;95319.41;;;6.33;100.00
29379;BME280;16362;47.202;15.258;2024-03-02T04:28:20;95321.41;;;6.31;100.00
29379;BME280;16362;47.202;15.258;2024-03-02T04:30:54;95322.91;;;6.33;100.00
29379;BME280;16362;47.202;15.258;2024-03-02T04:33:22;95320.56;;;6.30;100.00
29379;BME280;16362;47.202;15.258;2024-03-02T04:35:49;95320.09;;;6.27;100.00
29379;BME280;16362;47.202;15.258;2024-03-02T04:38:18;95330.53;;;6.28;100.00
29379;BME280;16362;47.202;15.258;2024-03-02T04:40:51;95326.38;;;6.26;100.00
29379;BME280;16362;47.202;15.258;2024-03-02T04:43:31;95325.72;;;6.23;100.00
29379;BME280;16362;47.202;15.258;2024-03-02T04:46:01;95336.66;;;6.20;100.00
29379;BME280;16362;47.202;15.258;2024-03-02T04:48:33;95342.13;;;6.19;100.00
29379;BME280;16362;47.202;15.258;2024-03-02T04:51:01;95337.66;;;6.19;100.00
29379;BME280;16362;47.202;15.258;2024-03-02T04:53:30;95343.63;;;6.21;100.00
29379;BME280;16362;47.202;15.258;2024-03-02T04:56:00;95357.03;;;6.20;100.00
29379;BME280;16362;47.202;15.258;2024-03-02T04:59:03;95360.84;;;6.17;100.00
29379;BME280;16362;47.202;15.258;2024-03-02T05:01:30;95370.47;;;6.18;100.00
29379;BME280;16362;47.202;15.258;2024-03-02T05:03:57;95368.81;;;6.17;100.00
29379;BME280;16362;47.202;15.258;2024-03-02T05:06:23;95367.16;;;6.16;100.00
29379;BME280;16362;47.202;15.258;2024-03-02T05:08:50;95357.72;;;6.14;100.00
29379;BME280;16362;47.202;15.258;2024-03-02T05:11:17;95363.81;;;6.14;100.00
29379;BME280;16362;47.202;15.258;2024-03-02T05:14:16;95367.50;;;6.13;100.00
29379;BME280;16362;47.202;15.258;2024-03-02T05:16:43;95373.78;;;6.12;100.00
29379;BME280;16362;47.202;15.258;2024-03-02T05:19:11;95373.44;;;6.07;100.00
29379;BME280;16362;47.202;15.258;2024-03-02T05:21:38;95373.28;;;6.09;100.00
29379;BME280;16362;47.202;15.258;2024-03-02T05:24:05;95380.91;;;6.12;100.00
29379;BME280;16362;47.202;15.258;2024-03-02T05:26:32;95381.22;;;6.09;100.00
29379;BME280;16362;47.202;15.258;2024-03-02T05:28:59;95368.50;;;6.04;100.00
29379;BME280;16362;47.202;15.258;2024-03-02T05:31:25;95369.47;;;6.03;100.00
29379;BME280;16362;47.202;15.258;2024-03-02T05:33:52;95375.47;;;6.05;100.00
29379;BME280;16362;47.202;15.258;2024-03-02T05:36:23;95380.91;;;6.03;100.00
29379;BME280;16362;47.202;15.258;2024-03-02T05:38:50;95379.09;;;6.04;100.00
29379;BME280;16362;47.202;15.258;2024-03-02T05:41:34;95371.63;;;5.99;100.00
29379;BME280;16362;47.202;15.258;2024-03-02T05:44:13;95377.78;;;6.00;100.00
29379;BME280;16362;47.202;15.258;2024-03-02T05:46:42;95385.03;;;5.98;100.00
29379;BME280;16362;47.202;15.258;2024-03-02T05:49:18;95378.09;;;5.97;100.00
29379;BME280;16362;47.202;15.258;2024-03-02T05:51:57;95386.84;;;5.97;100.00
29379;BME280;16362;47.202;15.258;2024-03-02T05:54:31;95390.47;;;5.96;100.00
29379;BME280;16362;47.202;15.258;2024-03-02T05:56:58;95391.47;;;5.95;100.00
29379;BME280;16362;47.202;15.258;2024-03-02T05:59:44;95393.13;;;5.96;100.00
29379;BME280;16362;47.202;15.258;2024-03-02T06:02:14;95393.97;;;5.97;100.00
29379;BME280;16362;47.202;15.258;2024-03-02T06:04:41;95395.94;;;5.95;100.00
29379;BME280;16362;47.202;15.258;2024-03-02T06:07:11;95399.44;;;6.03;100.00
29379;BME280;16362;47.202;15.258;2024-03-02T06:09:57;95401.59;;;6.08;100.00
29379;BME280;16362;47.202;15.258;2024-03-02T06:12:28;95401.09;;;6.04;100.00
29379;BME280;16362;47.202;15.258;2024-03-02T06:14:59;95408.22;;;6.04;100.00
29379;BME280;16362;47.202;15.258;2024-03-02T06:17:27;95413.53;;;6.04;100.00
29379;BME280;16362;47.202;15.258;2024-03-02T06:19:54;95419.00;;;6.02;100.00
29379;BME280;16362;47.202;15.258;2024-03-02T06:22:21;95411.53;;;6.06;100.00
29379;BME280;16362;47.202;15.258;2024-03-02T06:24:49;95415.50;;;6.02;100.00
29379;BME280;16362;47.202;15.258;2024-03-02T06:27:18;95412.03;;;6.01;100.00
29379;BME280;16362;47.202;15.258;2024-03-02T06:29:47;95418.81;;;6.04;100.00
29379;BME280;16362;47.202;15.258;2024-03-02T06:32:23;95419.47;;;6.06;100.00
29379;BME280;16362;47.202;15.258;2024-03-02T06:34:53;95420.66;;;6.12;100.00
29379;BME280;16362;47.202;15.258;2024-03-02T06:37:20;95415.16;;;6.13;100.00
29379;BME280;16362;47.202;15.258;2024-03-02T06:39:48;95423.44;;;6.18;100.00
29379;BME280;16362;47.202;15.258;2024-03-02T06:42:15;95429.72;;;6.26;100.00
29379;BME280;16362;47.202;15.258;2024-03-02T06:44:54;95431.03;;;6.30;100.00
29379;BME280;16362;47.202;15.258;2024-03-02T06:47:21;95426.53;;;6.38;100.00
29379;BME280;16362;47.202;15.258;2024-03-02T06:49:47;95426.69;;;6.45;100.00
29379;BME280;16362;47.202;15.258;2024-03-02T06:52:14;95434.31;;;6.48;100.00
29379;BME280;16362;47.202;15.258;2024-03-02T06:54:41;95428.50;;;6.53;100.00
29379;BME280;16362;47.202;15.258;2024-03-02T06:57:08;95443.88;;;6.57;100.00
29379;BME280;16362;47.202;15.258;2024-03-02T06:59:34;95433.31;;;6.49;100.00
29379;BME280;16362;47.202;15.258;2024-03-02T07:02:01;95430.66;;;6.49;100.00
29379;BME280;16362;47.202;15.258;2024-03-02T07:04:28;95438.59;;;6.49;100.00
29379;BME280;16362;47.202;15.258;2024-03-02T07:06:55;95432.16;;;6.44;100.00
29379;BME280;16362;47.202;15.258;2024-03-02T07:09:22;95439.63;;;6.48;100.00
29379;BME280;16362;47.202;15.258;2024-03-02T07:11:49;95434.31;;;6.48;100.00
29379;BME280;16362;47.202;15.258;2024-03-02T07:14:17;95424.50;;;6.57;100.00
29379;BME280;16362;47.202;15.258;2024-03-02T07:16:44;95429.16;;;6.63;100.00
29379;BME280;16362;47.202;15.258;2024-03-02T07:19:11;95426.97;;;6.67;100.00
29379;BME280;16362;47.202;15.258;2024-03-02T07:21:38;95407.56;;;6.74;100.00
29379;BME280;16362;47.202;15.258;2024-03-02T07:24:05;95420.91;;;6.89;100.00
29379;BME280;16362;47.202;15.258;2024-03-02T07:26:41;95413.25;;;7.03;100.00
29379;BME280;16362;47.202;15.258;2024-03-02T07:29:10;95420.47;;;7.17;100.00
29379;BME280;16362;47.202;15.258;2024-03-02T07:31:38;95413.81;;;7.21;100.00
29379;BME280;16362;47.202;15.258;2024-03-02T07:34:06;95412.59;;;7.32;100.00
29379;BME280;16362;47.202;15.258;2024-03-02T07:36:40;95403.41;;;7.43;100.00
29379;BME280;16362;47.202;15.258;2024-03-02T07:39:07;95405.81;;;7.53;100.00
29379;BME280;16362;47.202;15.258;2024-03-02T07:41:36;95404.28;;;7.58;100.00
29379;BME280;16362;47.202;15.258;2024-03-02T07:44:03;95401.56;;;7.67;100.00
29379;BME280;16362;47.202;15.258;2024-03-02T07:46:30;95402.34;;;7.75;100.00
29379;BME280;16362;47.202;15.258;2024-03-02T07:48:57;95409.75;;;7.80;100.00
29379;BME280;16362;47.202;15.258;2024-03-02T07:51:24;95399.44;;;7.85;100.00
29379;BME280;16362;47.202;15.258;2024-03-02T07:53:51;95409.63;;;7.97;100.00
29379;BME280;16362;47.202;15.258;2024-03-02T07:56:18;95401.59;;;8.05;100.00
29379;BME280;16362;47.202;15.258;2024-03-02T07:58:49;95406.47;;;8.16;100.00
29379;BME280;16362;47.202;15.258;2024-03-02T08:01:16;95405.03;;;8.29;100.00
29379;BME280;16362;47.202;15.258;2024-03-02T08:03:45;95409.38;;;8.45;100.00
29379;BME280;16362;47.202;15.258;2024-03-02T08:06:17;95401.03;;;8.63;100.00
29379;BME280;16362;47.202;15.258;2024-03-02T08:08:45;95394.72;;;8.79;100.00
29379;BME280;16362;47.202;15.258;2024-03-02T08:11:11;95390.28;;;9.01;100.00
29379;BME280;16362;47.202;15.258;2024-03-02T08:13:42;95391.09;;;9.16;100.00
29379;BME280;16362;47.202;15.258;2024-03-02T08:16:09;95387.00;;;9.35;100.00
29379;BME280;16362;47.202;15.258;2024-03-02T08:18:38;95386.53;;;9.32;100.00
29379;BME280;16362;47.202;15.258;2024-03-02T08:21:05;95379.69;;;9.22;100.00
29379;BME280;16362;47.202;15.258;2024-03-02T08:23:38;95381.72;;;9.20;100.00
29379;BME280;16362;47.202;15.258;2024-03-02T08:26:10;95379.91;;;9.06;100.00
29379;BME280;16362;47.202;15.258;2024-03-02T08:28:39;95385.97;;;9.00;100.00
29379;BME280;16362;47.202;15.258;2024-03-02T08:31:09;95388.63;;;8.85;100.00
29379;BME280;16362;47.202;15.258;2024-03-02T08:33:37;95383.69;;;8.97;100.00
29379;BME280;16362;47.202;15.258;2024-03-02T08:36:05;95384.94;;;9.16;100.00
29379;BME280;16362;47.202;15.258;2024-03-02T08:38:32;95378.16;;;9.35;100.00
29379;BME280;16362;47.202;15.258;2024-03-02T08:41:00;95377.31;;;9.49;100.00
29379;BME280;16362;47.202;15.258;2024-03-02T08:43:27;95378.13;;;9.71;100.00
29379;BME280;16362;47.202;15.258;2024-03-02T08:45:54;95370.19;;;9.78;100.00
29379;BME280;16362;47.202;15.258;2024-03-02T08:48:21;95370.44;;;9.83;100.00
29379;BME280;16362;47.202;15.258;2024-03-02T08:50:48;95370.66;;;10.10;100.00
29379;BME280;16362;47.202;15.258;2024-03-02T08:53:15;95369.81;;;10.31;100.00
29379;BME280;16362;47.202;15.258;2024-03-02T08:55:48;95371.28;;;10.34;100.00
29379;BME280;16362;47.202;15.258;2024-03-02T08:58:16;95370.09;;;10.43;100.00
29379;BME280;16362;47.202;15.258;2024-03-02T09:00:44;95365.91;;;10.55;100.00
29379;BME280;16362;47.202;15.258;2024-03-02T09:03:11;95368.53;;;10.49;100.00
29379;BME280;16362;47.202;15.258;2024-03-02T09:05:39;95365.09;;;10.33;100.00
29379;BME280;16362;47.202;15.258;2024-03-02T09:08:05;95358.06;;;10.25;100.00
29379;BME280;16362;47.202;15.258;2024-03-02T09:10:32;95360.50;;;10.20;100.00
29379;BME280;16362;47.202;15.258;2024-03-02T09:13:01;95368.16;;;10.02;100.00
29379;BME280;16362;47.202;15.258;2024-03-02T09:15:29;95367.22;;;9.88;100.00
29379;BME280;16362;47.202;15.258;2024-03-02T09:18:02;95370.97;;;9.93;100.00
29379;BME280;16362;47.202;15.258;2024-03-02T09:20:29;95361.88;;;10.09;100.00
29379;BME280;16362;47.202;15.258;2024-03-02T09:22:56;95366.34;;;10.09;100.00
29379;BME280;16362;47.202;15.258;2024-03-02T09:25:23;95364.63;;;10.23;100.00
29379;BME280;16362;47.202;15.258;2024-03-02T09:27:50;95358.38;;;10.37;100.00
29379;BME280;16362;47.202;15.258;2024-03-02T09:30:18;95363.44;;;10.60;100.00
29379;BME280;16362;47.202;15.258;2024-03-02T09:32:44;95350.81;;;10.76;100.00
29379;BME280;16362;47.202;15.258;2024-03-02T09:35:15;95346.63;;;11.08;100.00
29379;BME280;16362;47.202;15.258;2024-03-02T09:37:45;95351.41;;;11.26;100.00
29379;BME280;16362;47.202;15.258;2024-03-02T09:40:13;95356.94;;;11.25;100.00
29379;BME280;16362;47.202;15.258;2024-03-02T09:42:40;95345.31;;;11.46;100.00
29379;BME280;16362;47.202;15.258;2024-03-02T09:45:08;95346.91;;;11.40;100.00
29379;BME280;16362;47.202;15.258;2024-03-02T09:47:35;95350.81;;;11.38;100.00
29379;BME280;16362;47.202;15.258;2024-03-02T09:50:08;95343.19;;;11.35;100.00
29379;BME280;16362;47.202;15.258;2024-03-02T09:52:36;95341.75;;;11.25;100.00
29379;BME280;16362;47.202;15.258;2024-03-02T09:55:04;95338.69;;;11.28;100.00
29379;BME280;16362;47.202;15.258;2024-03-02T09:57:33;95342.78;;;11.31;100.00
29379;BME280;16362;47.202;15.258;2024-03-02T10:00:00;95346.28;;;11.32;100.00
29379;BME280;16362;47.202;15.258;2024-03-02T10:02:27;95341.81;;;11.52;100.00
29379;BME280;16362;47.202;15.258;2024-03-02T10:04:54;95343.06;;;11.70;100.00
29379;BME280;16362;47.202;15.258;2024-03-02T10:07:20;95336.28;;;11.74;100.00
29379;BME280;16362;47.202;15.258;2024-03-02T10:09:48;95341.84;;;11.72;100.00
29379;BME280;16362;47.202;15.258;2024-03-02T10:12:16;95336.03;;;11.35;100.00
29379;BME280;16362;47.202;15.258;2024-03-02T10:14:44;95341.75;;;11.32;100.00
29379;BME280;16362;47.202;15.258;2024-03-02T10:17:12;95340.44;;;11.01;100.00
29379;BME280;16362;47.202;15.258;2024-03-02T10:19:40;95335.94;;;11.02;100.00
29379;BME280;16362;47.202;15.258;2024-03-02T10:22:08;95336.41;;;11.25;100.00
29379;BME280;16362;47.202;15.258;2024-03-02T10:24:44;95339.97;;;11.73;100.00
29379;BME280;16362;47.202;15.258;2024-03-02T10:27:25;95341.38;;;11.55;100.00
29379;BME280;16362;47.202;15.258;2024-03-02T10:29:54;95334.22;;;11.62;100.00
29379;BME280;16362;47.202;15.258;2024-03-02T10:32:22;95343.88;;;11.57;100.00
29379;BME280;16362;47.202;15.258;2024-03-02T10:34:50;95337.09;;;11.48;100.00
29379;BME280;16362;47.202;15.258;2024-03-02T10:37:23;95336.44;;;11.39;100.00
29379;BME280;16362;47.202;15.258;2024-03-02T10:39:52;95339.13;;;11.45;100.00
29379;BME280;16362;47.202;15.258;2024-03-02T10:42:38;95331.00;;;11.12;100.00
29379;BME280;16362;47.202;15.258;2024-03-02T10:45:09;95336.81;;;11.29;100.00
29379;BME280;16362;47.202;15.258;2024-03-02T10:47:38;95342.16;;;11.22;100.00
29379;BME280;16362;47.202;15.258;2024-03-02T10:50:06;95329.03;;;11.27;100.00
29379;BME280;16362;47.202;15.258;2024-03-02T10:52:38;95329.03;;;11.27;100.00
29379;BME280;16362;47.202;15.258;2024-03-02T10:55:17;95339.19;;;11.04;100.00
29379;BME280;16362;47.202;15.258;2024-03-02T10:57:51;95327.50;;;11.05;100.00
29379;BME280;16362;47.202;15.258;2024-03-02T11:00:20;95333.84;;;10.97;100.00
29379;BME280;16362;47.202;15.258;2024-03-02T11:02:58;95331.38;;;10.95;100.00
29379;BME280;16362;47.202;15.258;2024-03-02T11:05:31;95330.13;;;10.91;100.00
29379;BME280;16362;47.202;15.258;2024-03-02T11:08:08;95329.41;;;10.63;100.00
29379;BME280;16362;47.202;15.258;2024-03-02T11:10:57;95335.44;;;10.85;100.00
29379;BME280;16362;47.202;15.258;2024-03-02T11:13:31;95331.38;;;10.95;100.00
29379;BME280;16362;47.202;15.258;2024-03-02T11:16:06;95322.41;;;11.10;100.00
29379;BME280;16362;47.202;15.258;2024-03-02T11:18:43;95318.44;;;10.92;100.00
29379;BME280;16362;47.202;15.258;2024-03-02T11:21:13;95320.25;;;10.85;100.00
29379;BME280;16362;47.202;15.258;2024-03-02T11:23:43;95320.63;;;10.82;100.00
29379;BME280;16362;47.202;15.258;2024-03-02T11:26:20;95313.78;;;10.66;100.00
29379;BME280;16362;47.202;15.258;2024-03-02T11:28:48;95312.41;;;10.77;100.00
29379;BME280;16362;47.202;15.258;2024-03-02T11:31:16;95315.06;;;10.77;100.00
29379;BME280;16362;47.202;15.258;2024-03-02T11:33:43;95301.91;;;10.69;100.00
29379;BME280;16362;47.202;15.258;2024-03-02T11:36:15;95309.88;;;10.62;100.00
29379;BME280;16362;47.202;15.258;2024-03-02T11:38:43;95299.81;;;10.57;100.00
29379;BME280;16362;47.202;15.258;2024-03-02T11:41:13;95298.00;;;10.65;100.00
29379;BME280;16362;47.202;15.258;2024-03-02T11:43:45;95293.13;;;10.75;100.00
29379;BME280;16362;47.202;15.258;2024-03-02T11:46:27;95295.38;;;10.78;100.00
29379;BME280;16362;47.202;15.258;2024-03-02T11:48:54;95296.81;;;10.81;100.00
29379;BME280;16362;47.202;15.258;2024-03-02T11:51:24;95289.03;;;10.79;100.00
29379;BME280;16362;47.202;15.258;2024-03-02T11:53:54;95289.22;;;10.77;100.00
29379;BME280;16362;47.202;15.258;2024-03-02T11:56:22;95292.13;;;10.83;100.00
29379;BME280;16362;47.202;15.258;2024-03-02T11:58:54;95288.66;;;10.89;100.00
29379;BME280;16362;47.202;15.258;2024-03-02T12:01:26;95276.94;;;10.90;100.00
29379;BME280;16362;47.202;15.258;2024-03-02T12:03:55;95278.59;;;10.91;100.00
29379;BME280;16362;47.202;15.258;2024-03-02T12:06:25;95287.25;;;11.00;100.00
29379;BME280;16362;47.202;15.258;2024-03-02T12:08:53;95291.81;;;11.19;100.00
29379;BME280;16362;47.202;15.258;2024-03-02T12:11:25;95286.69;;;11.38;100.00
29379;BME280;16362;47.202;15.258;2024-03-02T12:13:54;95273.97;;;11.33;100.00
29379;BME280;16362;47.202;15.258;2024-03-02T12:16:25;95275.59;;;11.21;100.00
29379;BME280;16362;47.202;15.258;2024-03-02T12:18:55;95274.34;;;11.10;100.00
29379;BME280;16362;47.202;15.258;2024-03-02T12:21:22;95274.53;;;11.08;100.00
29379;BME280;16362;47.202;15.258;2024-03-02T12:23:49;95272.69;;;11.09;100.00
29379;BME280;16362;47.202;15.258;2024-03-02T12:26:19;95272.47;;;11.04;100.00
29379;BME280;16362;47.202;15.258;2024-03-02T12:28:49;95271.44;;;11.05;100.00
29379;BME280;16362;47.202;15.258;2024-03-02T12:31:16;95270.81;;;11.09;100.00
29379;BME280;16362;47.202;15.258;2024-03-02T12:33:43;95272.91;;;11.21;100.00
29379;BME280;16362;47.202;15.258;2024-03-02T12:36:13;95270.66;;;11.11;100.00
29379;BME280;16362;47.202;15.258;2024-03-02T12:38:45;95271.03;;;11.08;100.00
29379;BME280;16362;47.202;15.258;2024-03-02T12:41:18;95263.88;;;11.22;100.00
29379;BME280;16362;47.202;15.258;2024-03-02T12:43:45;95272.28;;;11.12;100.00
29379;BME280;16362;47.202;15.258;2024-03-02T12:46:12;95259.97;;;11.18;100.00
29379;BME280;16362;47.202;15.258;2024-03-02T12:48:41;95260.59;;;11.20;100.00
29379;BME280;16362;47.202;15.258;2024-03-02T12:51:08;95268.59;;;11.20;100.00
29379;BME280;16362;47.202;15.258;2024-03-02T12:53:35;95271.88;;;11.15;100.00
29379;BME280;16362;47.202;15.258;2024-03-02T12:56:03;95261.22;;;11.15;100.00
29379;BME280;16362;47.202;15.258;2024-03-02T12:58:39;95263.06;;;11.21;100.00
29379;BME280;16362;47.202;15.258;2024-03-02T13:01:08;95266.91;;;11.05;100.00
29379;BME280;16362;47.202;15.258;2024-03-02T13:03:38;95263.66;;;11.10;100.00